Aérodrome :
LOGIN :

S'inscrire | Disclaimer

   EN    FR    IT 

 










Légende :    VFR   VFR Marginal   IFR   IFR Intensif   IFR Très Intensif
Visi : 
Plafond : 
>= 8 km
>= 3000ft
5 à 8 km
1000 à 3000 ft
1500m à 5 km
500 à 1000 ft
800 à 1500m
200 à 500 ft
< 800m
< 200 ft
Symboles :   Orages  Brouillard  Fortes neiges  Fortes précipitations  Vent > 20 kt
SIGMETs :   Divers  Orages  Givrage  Turbulence  Onde Orograph.  Cendres Volcan.







- Altitude de l'aérodrome : 7 ft
- Code IATA : VCE


LIPZ - Marco Polo Int. Venezia

DERNIER METAR :
  • 231150Z 11006KT 060V150 6000 FEW015 16/12 Q1018 NOSIG

METARs EXPIRÉS :
  • 231120Z 13005KT 050V180 6000 SCT009 SCT050 16/12 Q1018 NOSIG
  • 231050Z 10004KT 020V150 6000 SCT009 BKN016 15/11 Q1018 NOSIG
  • 231020Z 04004KT 320V110 6000 SCT005 BKN014 15/11 Q1017 NOSIG
  • 230950Z 02005KT 340V070 6000 SCT005 BKN013 14/11 Q1017 NOSIG
  • 230920Z 06003KT 350V120 5000 BR SCT007 BKN012 14/11 Q1017 NOSIG

TAF TAF LIPZ
Valide du 23 à 12h jusqu'au 24 à 18h UTC


231100Z 2312/2418 14010KT 7000 SCT015
BECMG 2318/2320 04008KT 2000 BR
TEMPO 2400/2408 0400 FG
BECMG 2410/2412 15010KT 6000
Pas de NOTAMs connus pour ce terrain.



MET'MAP, la Météo Aéronautique d'un coup d'oeil ! - Copyright ORBIFLY Décembre 2007 - Disclaimer

ORBIFLY MET'MAP TEAM :

Programmation & Développement : Alexandra Zaïnal
Conception & Développement : Baudouin d'Aumeries
Co-Programmation & Développement : Marc-Olivier Méhu
Soutien technique & logistique : Manuel Goepfert

Contact : metmap@orbifly.com




SOURCES & CREDITS :

   NOAA